Bookmark and Share
Track history (hours):
 

Alaska Titan

More information available from US FCC via Universal Licensing System and Coast Guard Vessel Documentation Center.

Last reported at 2014-Apr-20 02:32 UTC. Time now 2014-Apr-20 03:21 UTC.
Position N 58°15' W 135°34'.

Length 40 m; draft 6 m.

Type: Tow > 200 m length. MMSI: 367357890.

NotesDate/timePositionNaut miles runAvg speedWind from/ knotsBaromVisibWave heightAir tempDewpointWater temp
2014-Apr-20 02:32N 58°15' W 135°34'8 8.6
2014-Apr-20 01:33N 58°18' W 135°49'9 8.8
2014-Apr-20 00:33N 58°15' W 136°04'7 6.8
2014-Apr-19 23:28N 58°17' W 136°18'  
2014-Apr-14 06:33N 58°17' W 136°13'7 7.1
2014-Apr-14 05:34N 58°16' W 136°00'  
2014-Apr-11 12:32N 51°11' W 127°52'7 7.6
2014-Apr-11 11:33N 51°06' W 127°45'8 8.3
2014-Apr-11 10:33N 51°00' W 127°35'10 9.7
2014-Apr-11 09:33N 50°54' W 127°23'10 9.8
2014-Apr-11 08:32N 50°47' W 127°11'10 9.3
2014-Apr-11 07:27N 50°42' W 126°57'8 8.6
2014-Apr-11 06:33N 50°38' W 126°47'11 7.9
2014-Apr-11 05:07N 50°31' W 126°34'46 9.7
2014-Apr-11 00:23N 50°18' W 125°25'10 8.4
2014-Apr-10 23:12N 50°08' W 125°21'7 8.5
2014-Apr-10 22:24N 50°03' W 125°14'8 9.2
2014-Apr-10 21:30N 49°56' W 125°07'1010.1
2014-Apr-10 20:33N 49°50' W 124°56'10 9.6
2014-Apr-10 19:33N 49°44' W 124°44'1010.1
2014-Apr-10 18:33N 49°38' W 124°31'10 9.8
2014-Apr-10 17:33N 49°33' W 124°19'10 9.5
2014-Apr-10 16:33N 49°28' W 124°07'13 9.3
2014-Apr-10 15:10N 49°20' W 123°50'5 9.0
2014-Apr-10 14:33N 49°17' W 123°44'9 9.0
2014-Apr-10 13:34N 49°11' W 123°33'9 9.0
2014-Apr-10 12:33N 49°05' W 123°23'9 8.6
2014-Apr-10 11:33N 48°60' W 123°13'9 9.0
2014-Apr-10 10:33N 48°54' W 123°02'9 9.2
2014-Apr-10 09:33N 48°48' W 122°52'10 9.8
2014-Apr-10 08:34N 48°40' W 122°42'1111.1
2014-Apr-10 07:33N 48°29' W 122°44'10 9.6
2014-Apr-10 06:31N 48°19' W 122°46'14 6.7
2014-Apr-10 04:29N 48°06' W 122°39'8 8.3
2014-Apr-10 03:33N 47°59' W 122°35'1 8.6
2014-Apr-10 03:29N 47°59' W 122°34'8 8.5
2014-Apr-10 02:34N 47°52' W 122°28'  

Dump ship's entire track history

sailing weather and tide predictions

Alaska Titan — WDE4789 — position and weather